createdAt,value
2018-05-07T00:00:40.401Z,13.10
2018-05-07T00:03:07.496Z,13.00
2018-05-07T00:05:34.523Z,13.00
2018-05-07T00:08:01.550Z,12.90
2018-05-07T00:10:29.313Z,13.00
2018-05-07T00:12:56.442Z,12.90
2018-05-07T00:15:23.467Z,12.90
2018-05-07T00:17:50.469Z,12.90
2018-05-07T00:20:18.236Z,12.80
2018-05-07T00:22:45.321Z,12.80
2018-05-07T00:25:12.361Z,12.70
2018-05-07T00:27:39.412Z,12.70
2018-05-07T00:30:06.443Z,12.60
2018-05-07T00:32:33.521Z,12.60
2018-05-07T00:35:00.607Z,12.60
2018-05-07T00:37:28.380Z,12.50
2018-05-07T00:39:56.127Z,12.50
2018-05-07T00:42:23.172Z,12.40
2018-05-07T00:44:50.319Z,12.50
2018-05-07T00:47:17.323Z,12.50
2018-05-07T00:49:44.350Z,12.50
2018-05-07T00:52:11.374Z,12.50
2018-05-07T00:54:56.860Z,12.50
2018-05-07T00:57:25.560Z,12.50
2018-05-07T00:59:53.292Z,12.50
2018-05-07T01:02:20.355Z,12.40
2018-05-07T01:04:48.165Z,12.40
2018-05-07T01:07:15.197Z,12.40
2018-05-07T01:09:42.942Z,12.30
2018-05-07T01:12:09.928Z,12.30
2018-05-07T01:14:37.021Z,12.30
2018-05-07T01:17:04.040Z,12.30
2018-05-07T01:19:31.059Z,12.30
2018-05-07T01:21:58.787Z,12.20
2018-05-07T01:24:26.609Z,12.10
2018-05-07T01:26:53.639Z,12.10
2018-05-07T01:29:20.632Z,12.10
2018-05-07T01:31:47.781Z,12.10
2018-05-07T01:34:15.708Z,12.00
2018-05-07T01:36:42.696Z,12.00
2018-05-07T01:39:09.716Z,12.00
2018-05-07T01:41:36.742Z,11.90
2018-05-07T01:44:03.853Z,11.80
2018-05-07T01:46:31.672Z,11.80
2018-05-07T01:48:58.668Z,11.80
2018-05-07T01:51:25.729Z,11.80
2018-05-07T01:53:52.793Z,11.80
2018-05-07T01:56:19.819Z,11.80
2018-05-07T01:58:47.567Z,11.80
2018-05-07T02:01:15.454Z,11.70
2018-05-07T02:03:42.439Z,11.70
2018-05-07T02:06:09.440Z,11.70
2018-05-07T02:08:37.197Z,11.70
2018-05-07T02:11:04.950Z,11.60
2018-05-07T02:13:32.078Z,11.60
2018-05-07T02:15:59.158Z,11.60
2018-05-07T02:18:26.124Z,11.60
2018-05-07T02:20:53.162Z,11.60
2018-05-07T02:23:20.225Z,11.60
2018-05-07T02:25:47.324Z,11.60
2018-05-07T02:28:14.323Z,11.60
2018-05-07T02:30:41.337Z,11.60
2018-05-07T02:33:08.416Z,11.70
2018-05-07T02:35:35.432Z,11.70
2018-05-07T02:38:03.225Z,11.70
2018-05-07T02:40:30.261Z,11.70
2018-05-07T02:42:58.279Z,11.70
2018-05-07T02:45:25.289Z,11.80
2018-05-07T02:47:52.295Z,11.80
2018-05-07T02:50:19.337Z,11.80
2018-05-07T02:52:46.357Z,11.90
2018-05-07T02:55:13.380Z,11.80
2018-05-07T02:57:40.392Z,11.80
2018-05-07T03:00:08.145Z,11.80
2018-05-07T03:02:35.176Z,11.80
2018-05-07T03:05:03.002Z,11.70
2018-05-07T03:07:30.033Z,11.70
2018-05-07T03:09:57.753Z,11.60
2018-05-07T03:12:24.747Z,11.60
2018-05-07T03:14:51.819Z,11.60
2018-05-07T03:17:18.812Z,11.60
2018-05-07T03:19:45.820Z,11.60
2018-05-07T03:22:12.948Z,11.60
2018-05-07T03:24:40.780Z,11.50
2018-05-07T03:27:07.760Z,11.50
2018-05-07T03:29:34.848Z,11.50
2018-05-07T03:32:01.965Z,11.50
2018-05-07T03:34:29.221Z,11.50
2018-05-07T03:36:56.232Z,11.40
2018-05-07T03:39:23.231Z,11.40
2018-05-07T03:41:50.245Z,11.40
2018-05-07T03:44:17.332Z,11.40
2018-05-07T03:46:44.372Z,11.40
2018-05-07T03:49:11.397Z,11.40
2018-05-07T03:51:38.517Z,11.40
2018-05-07T03:54:06.307Z,11.40
2018-05-07T03:56:33.368Z,11.40
2018-05-07T03:59:00.389Z,11.40
2018-05-07T04:01:28.279Z,11.40
2018-05-07T04:03:55.338Z,11.30
2018-05-07T04:06:22.364Z,11.30
2018-05-07T04:08:49.403Z,11.40
2018-05-07T04:11:16.424Z,11.40
2018-05-07T04:13:43.543Z,11.30
2018-05-07T04:16:10.621Z,11.30
2018-05-07T04:18:56.931Z,11.30
2018-05-07T04:21:24.725Z,11.40
2018-05-07T04:24:03.060Z,11.30
2018-05-07T04:26:30.078Z,11.40
2018-05-07T04:28:57.127Z,11.50
2018-05-07T04:31:24.157Z,11.60
2018-05-07T04:33:51.261Z,11.70
2018-05-07T04:36:18.333Z,11.70
2018-05-07T04:38:45.429Z,11.60
2018-05-07T04:41:12.481Z,11.70
2018-05-07T04:43:39.675Z,11.70
2018-05-07T04:46:06.777Z,11.80
2018-05-07T04:48:33.787Z,11.90
2018-05-07T04:51:00.825Z,12.20
2018-05-07T04:53:27.928Z,12.20
2018-05-07T04:55:54.960Z,12.40
2018-05-07T04:58:21.953Z,12.50
2018-05-07T05:00:48.973Z,12.70
2018-05-07T05:03:16.216Z,12.80
2018-05-07T05:05:43.219Z,12.90
2018-05-07T05:08:11.005Z,13.00
2018-05-07T05:10:38.004Z,13.00
2018-05-07T05:13:05.124Z,13.10
2018-05-07T05:15:32.140Z,13.30
2018-05-07T05:17:59.155Z,13.40
2018-05-07T05:20:26.148Z,13.40
2018-05-07T05:22:54.216Z,13.40
2018-05-07T05:25:21.264Z,13.50
2018-05-07T05:27:48.284Z,13.60
2018-05-07T05:30:16.048Z,13.70
2018-05-07T05:32:43.892Z,13.90
2018-05-07T05:35:10.973Z,13.80
2018-05-07T05:37:37.996Z,13.90
2018-05-07T05:40:05.244Z,13.90
2018-05-07T05:42:32.258Z,14.00
2018-05-07T05:44:59.281Z,14.10
2018-05-07T05:47:26.273Z,14.20
2018-05-07T05:49:53.298Z,14.20
2018-05-07T05:52:20.324Z,14.30
2018-05-07T05:54:47.414Z,14.40
2018-05-07T05:57:15.188Z,14.40
2018-05-07T05:59:42.190Z,14.40
2018-05-07T06:02:09.260Z,14.50
2018-05-07T06:04:36.394Z,14.60
2018-05-07T06:07:03.428Z,14.60
2018-05-07T06:09:30.464Z,14.60
2018-05-07T06:11:57.489Z,14.70
2018-05-07T06:14:25.324Z,14.80
2018-05-07T06:16:52.333Z,14.80
2018-05-07T06:19:19.356Z,14.90
2018-05-07T06:21:46.363Z,15.00
2018-05-07T06:24:13.368Z,15.10
2018-05-07T06:26:40.379Z,15.10
2018-05-07T06:29:07.365Z,15.20
2018-05-07T06:31:34.384Z,15.20
2018-05-07T06:34:01.464Z,15.40
2018-05-07T06:36:28.519Z,15.40
2018-05-07T06:38:55.541Z,15.40
2018-05-07T06:41:22.580Z,15.40
2018-05-07T06:43:49.663Z,15.40
2018-05-07T06:46:16.702Z,15.50
2018-05-07T06:48:43.753Z,15.60
2018-05-07T06:51:10.756Z,15.60
2018-05-07T06:53:38.796Z,15.70
2018-05-07T06:56:05.811Z,15.80
2018-05-07T06:58:32.905Z,15.80
2018-05-07T07:00:59.949Z,15.90
2018-05-07T07:03:27.012Z,15.90
2018-05-07T07:05:54.793Z,16.00
2018-05-07T07:08:21.837Z,16.00
2018-05-07T07:10:48.861Z,16.10
2018-05-07T07:13:16.896Z,16.10
2018-05-07T07:15:43.897Z,16.20
2018-05-07T07:18:10.960Z,16.30
2018-05-07T07:20:37.968Z,16.30
2018-05-07T07:23:05.105Z,16.40
2018-05-07T07:25:32.104Z,16.50
2018-05-07T07:27:59.229Z,16.50
2018-05-07T07:30:26.193Z,16.60
2018-05-07T07:32:53.288Z,16.60
2018-05-07T07:35:20.301Z,16.70
2018-05-07T07:37:47.347Z,16.80
2018-05-07T07:40:14.356Z,16.90
2018-05-07T07:42:42.433Z,17.00
2018-05-07T07:45:09.432Z,16.90
2018-05-07T07:47:36.816Z,17.00
2018-05-07T07:50:03.959Z,17.10
2018-05-07T07:52:31.009Z,17.10
2018-05-07T07:54:58.004Z,17.10
2018-05-07T07:57:24.996Z,17.20
2018-05-07T07:59:52.105Z,17.20
2018-05-07T08:02:19.057Z,17.30
2018-05-07T08:04:46.113Z,17.40
2018-05-07T08:07:13.136Z,17.50
2018-05-07T08:09:40.884Z,17.60
2018-05-07T08:12:08.750Z,17.60
2018-05-07T08:14:36.452Z,17.70
2018-05-07T08:17:03.550Z,17.60
2018-05-07T08:19:30.547Z,17.70
2018-05-07T08:21:57.588Z,17.80
2018-05-07T08:24:25.025Z,17.90
2018-05-07T08:26:52.768Z,18.00
2018-05-07T08:29:27.008Z,18.00
2018-05-07T08:31:54.989Z,18.10
2018-05-07T08:34:22.295Z,18.10
2018-05-07T08:36:49.440Z,18.10
2018-05-07T08:39:16.671Z,18.20
2018-05-07T08:41:44.479Z,18.30
2018-05-07T08:44:13.301Z,18.30
2018-05-07T08:46:40.520Z,18.30
2018-05-07T08:49:07.545Z,18.50
2018-05-07T08:51:34.580Z,18.50
2018-05-07T08:54:01.605Z,18.60
2018-05-07T08:56:28.749Z,18.70
2018-05-07T08:58:55.769Z,18.70
2018-05-07T09:01:23.808Z,18.90
2018-05-07T09:03:51.097Z,18.90
2018-05-07T09:06:18.153Z,19.00
2018-05-07T09:08:45.189Z,19.00
2018-05-07T09:11:12.940Z,19.00
2018-05-07T09:13:40.827Z,19.10
2018-05-07T09:16:07.795Z,19.10
2018-05-07T09:18:34.811Z,19.10
2018-05-07T09:21:01.822Z,19.20
2018-05-07T09:23:28.952Z,19.30
2018-05-07T09:25:55.980Z,19.40
2018-05-07T09:28:23.007Z,19.50
2018-05-07T09:30:50.033Z,19.60
2018-05-07T09:33:17.861Z,19.80
2018-05-07T09:35:45.204Z,19.80
2018-05-07T09:38:12.179Z,19.80
2018-05-07T09:40:39.239Z,19.90
2018-05-07T09:43:06.353Z,19.90
2018-05-07T09:45:33.379Z,19.90
2018-05-07T09:48:00.383Z,20.00
2018-05-07T09:50:27.368Z,20.00
2018-05-07T09:52:54.472Z,20.20
2018-05-07T09:55:21.480Z,20.40
2018-05-07T09:58:01.008Z,20.40
2018-05-07T10:00:33.692Z,20.50
2018-05-07T10:03:00.763Z,20.50
2018-05-07T10:05:27.804Z,20.50
2018-05-07T10:07:54.832Z,20.60
2018-05-07T10:10:22.561Z,20.90
2018-05-07T10:12:50.380Z,20.90
2018-05-07T10:15:17.411Z,21.00
2018-05-07T10:17:44.437Z,21.10
2018-05-07T10:20:11.447Z,21.10
2018-05-07T10:22:38.565Z,21.20
2018-05-07T10:25:05.615Z,21.30
2018-05-07T10:27:32.608Z,21.40
2018-05-07T10:30:00.356Z,21.60
2018-05-07T10:32:27.364Z,21.50
2018-05-07T10:34:54.401Z,21.70
2018-05-07T10:37:21.424Z,21.70
2018-05-07T10:39:49.167Z,21.80
2018-05-07T10:42:16.187Z,21.80
2018-05-07T10:44:43.315Z,21.90
2018-05-07T10:47:10.699Z,22.00
2018-05-07T10:49:37.789Z,22.00
2018-05-07T10:52:05.543Z,22.30
2018-05-07T10:54:33.365Z,22.30
2018-05-07T10:57:00.365Z,22.30
2018-05-07T10:59:27.370Z,22.40
2018-05-07T11:01:54.387Z,22.40
2018-05-07T11:04:21.452Z,22.60
2018-05-07T11:06:48.452Z,22.70
2018-05-07T11:09:16.197Z,23.00
2018-05-07T11:11:43.970Z,23.10
2018-05-07T11:14:11.840Z,23.30
2018-05-07T11:16:38.872Z,23.30
2018-05-07T11:19:06.620Z,23.60
2018-05-07T11:21:33.630Z,23.50
2018-05-07T11:24:00.673Z,23.70
2018-05-07T11:26:27.701Z,23.80
2018-05-07T11:28:55.436Z,23.80
2018-05-07T11:31:22.429Z,23.80
2018-05-07T11:33:49.492Z,23.80
2018-05-07T11:36:16.859Z,24.00
2018-05-07T11:38:43.864Z,24.10
2018-05-07T11:41:10.872Z,24.40
2018-05-07T11:43:37.995Z,24.60
2018-05-07T11:46:04.999Z,24.70
2018-05-07T11:48:32.752Z,25.10
2018-05-07T11:50:59.753Z,25.00
2018-05-07T11:53:30.272Z,25.00
2018-05-07T11:55:57.701Z,25.10
2018-05-07T11:58:24.840Z,25.30
2018-05-07T12:00:52.603Z,25.70
2018-05-07T12:03:19.680Z,25.70
2018-05-07T12:05:47.419Z,25.80
2018-05-07T12:08:14.427Z,25.70
2018-05-07T12:10:41.441Z,25.70
2018-05-07T12:13:08.856Z,25.90
2018-05-07T12:15:36.741Z,26.40
2018-05-07T12:18:03.772Z,26.40
2018-05-07T12:20:31.520Z,27.10
2018-05-07T12:22:59.350Z,27.50
2018-05-07T12:25:26.356Z,27.50
2018-05-07T12:27:53.356Z,27.60
2018-05-07T12:30:20.360Z,28.10
2018-05-07T12:32:47.426Z,28.60
2018-05-07T12:35:15.161Z,29.20
2018-05-07T12:37:42.260Z,29.20
2018-05-07T12:40:09.245Z,29.40
2018-05-07T12:42:36.996Z,29.20
2018-05-07T12:45:04.024Z,29.20
2018-05-07T12:47:31.033Z,29.10
2018-05-07T12:49:58.040Z,29.10
2018-05-07T12:52:25.074Z,29.40
2018-05-07T12:54:52.083Z,30.10
2018-05-07T12:57:19.199Z,30.30
2018-05-07T12:59:46.941Z,30.60
2018-05-07T13:02:13.957Z,30.60
2018-05-07T13:04:43.173Z,30.20
2018-05-07T13:07:10.185Z,30.50
2018-05-07T13:09:37.204Z,31.00
2018-05-07T13:12:04.965Z,31.20
2018-05-07T13:14:32.784Z,30.70
2018-05-07T13:16:59.801Z,30.70
2018-05-07T13:19:26.829Z,30.40
2018-05-07T13:21:54.589Z,31.10
2018-05-07T13:24:22.391Z,31.00
2018-05-07T13:26:49.415Z,31.10
2018-05-07T13:29:16.416Z,31.40
2018-05-07T13:31:43.460Z,31.70
2018-05-07T13:34:10.478Z,31.50
2018-05-07T13:36:37.744Z,31.90
2018-05-07T13:39:04.787Z,32.20
2018-05-07T13:41:31.833Z,32.20
2018-05-07T13:43:58.880Z,31.60
2018-05-07T13:46:25.876Z,31.60
2018-05-07T13:48:53.644Z,31.40
2018-05-07T13:51:21.391Z,31.40
2018-05-07T13:53:48.541Z,31.40
2018-05-07T13:56:15.536Z,31.40
2018-05-07T13:58:42.625Z,31.00
2018-05-07T14:01:09.875Z,31.00
2018-05-07T14:03:36.988Z,30.80
2018-05-07T14:06:04.009Z,30.70
2018-05-07T14:08:32.172Z,30.40
2018-05-07T14:10:59.231Z,30.40
2018-05-07T14:13:27.024Z,31.10
2018-05-07T14:15:54.029Z,31.10
2018-05-07T14:18:21.768Z,31.30
2018-05-07T14:20:48.776Z,31.20
2018-05-07T14:23:15.837Z,31.40
2018-05-07T14:25:42.832Z,31.30
2018-05-07T14:28:10.600Z,30.80
2018-05-07T14:30:37.664Z,30.70
2018-05-07T14:33:05.475Z,31.40
2018-05-07T14:35:32.463Z,31.30
2018-05-07T14:38:00.288Z,31.30
2018-05-07T14:40:27.307Z,31.30
2018-05-07T14:42:54.360Z,31.10
2018-05-07T14:45:21.416Z,31.00
2018-05-07T14:47:48.303Z,30.80
2018-05-07T14:50:16.151Z,29.80
2018-05-07T14:52:43.110Z,29.70
2018-05-07T14:55:10.129Z,28.70
2018-05-07T14:57:37.146Z,27.90
2018-05-07T15:00:04.189Z,27.70
2018-05-07T15:02:31.213Z,27.70
2018-05-07T15:04:58.628Z,27.70
2018-05-07T15:07:25.869Z,27.00
2018-05-07T15:09:52.872Z,26.50
2018-05-07T15:12:20.705Z,26.10
2018-05-07T15:14:48.557Z,26.10
2018-05-07T15:17:15.865Z,26.10
2018-05-07T15:19:42.944Z,26.20
2018-05-07T15:22:09.937Z,26.20
2018-05-07T15:24:45.799Z,26.50
2018-05-07T15:27:13.579Z,26.40
2018-05-07T15:29:40.609Z,26.40
2018-05-07T15:32:12.536Z,25.80
2018-05-07T15:34:39.578Z,25.80
2018-05-07T15:37:06.900Z,25.50
2018-05-07T15:39:33.932Z,25.30
2018-05-07T15:42:01.756Z,25.30
2018-05-07T15:44:29.013Z,25.30
2018-05-07T15:46:56.068Z,25.30
2018-05-07T15:49:23.921Z,25.30
2018-05-07T15:51:50.952Z,25.30
2018-05-07T15:54:18.872Z,24.90
2018-05-07T15:56:45.900Z,24.90
2018-05-07T15:59:13.733Z,24.50
2018-05-07T16:01:40.769Z,24.50
2018-05-07T16:04:07.818Z,24.30
2018-05-07T16:06:35.197Z,24.10
2018-05-07T16:09:02.359Z,24.20
2018-05-07T16:11:29.433Z,24.40
2018-05-07T16:13:57.261Z,24.40
2018-05-07T16:16:24.287Z,24.30
2018-05-07T16:18:51.504Z,24.40
2018-05-07T16:21:18.642Z,24.20
2018-05-07T16:23:45.762Z,24.20
2018-05-07T16:26:12.823Z,24.10
2018-05-07T16:28:39.863Z,24.00
2018-05-07T16:31:07.799Z,23.90
2018-05-07T16:33:34.853Z,23.80
2018-05-07T16:36:01.927Z,23.70
2018-05-07T16:38:29.064Z,23.70
2018-05-07T16:40:56.399Z,23.60
2018-05-07T16:43:23.781Z,23.60
2018-05-07T16:45:50.960Z,23.40
2018-05-07T16:48:18.187Z,23.50
2018-05-07T16:50:45.205Z,23.50
2018-05-07T16:53:12.251Z,23.50
2018-05-07T16:55:39.284Z,23.40
2018-05-07T16:58:06.769Z,23.30
2018-05-07T17:00:33.912Z,23.30
2018-05-07T17:03:01.416Z,23.30
2018-05-07T17:05:28.613Z,23.30
2018-05-07T17:07:55.653Z,23.20
2018-05-07T17:10:22.884Z,23.10
2018-05-07T17:12:50.696Z,22.90
2018-05-07T17:15:17.729Z,22.90
2018-05-07T17:17:44.802Z,22.90
2018-05-07T17:20:11.874Z,22.90
2018-05-07T17:22:39.632Z,22.70
2018-05-07T17:25:06.656Z,22.70
2018-05-07T17:27:33.676Z,22.60
2018-05-07T17:30:00.788Z,22.50
2018-05-07T17:32:27.736Z,22.50
2018-05-07T17:34:54.844Z,22.40
2018-05-07T17:37:22.064Z,22.30
2018-05-07T17:39:49.848Z,22.10
2018-05-07T17:42:16.908Z,22.10
2018-05-07T17:45:02.365Z,22.00
2018-05-07T17:47:47.732Z,21.90
2018-05-07T17:50:15.221Z,21.70
2018-05-07T17:52:42.368Z,21.50
2018-05-07T17:55:09.406Z,21.50
2018-05-07T17:57:37.169Z,21.30
2018-05-07T18:00:04.450Z,21.30
2018-05-07T18:02:31.445Z,21.20
2018-05-07T18:04:58.528Z,21.20
2018-05-07T18:07:25.536Z,21.20
2018-05-07T18:09:53.518Z,21.00
2018-05-07T18:12:21.559Z,21.00
2018-05-07T18:14:48.656Z,20.90
2018-05-07T18:17:16.447Z,20.90
2018-05-07T18:19:43.457Z,20.90
2018-05-07T18:22:10.469Z,20.90
2018-05-07T18:24:37.564Z,20.90
2018-05-07T18:27:05.236Z,20.90
2018-05-07T18:29:32.280Z,20.90
2018-05-07T18:31:59.285Z,20.90
2018-05-07T18:34:26.392Z,20.80
2018-05-07T18:36:53.469Z,20.90
2018-05-07T18:39:20.485Z,20.80
2018-05-07T18:41:47.492Z,20.80
2018-05-07T18:44:14.528Z,20.90
2018-05-07T18:46:41.879Z,20.80
2018-05-07T18:49:08.886Z,20.80
2018-05-07T18:51:37.074Z,20.80
2018-05-07T18:54:04.296Z,20.80
2018-05-07T18:56:31.308Z,20.70
2018-05-07T18:58:59.317Z,20.70
2018-05-07T19:01:26.324Z,20.70
2018-05-07T19:03:53.376Z,20.70
2018-05-07T19:06:20.408Z,20.70
2018-05-07T19:08:47.428Z,20.70
2018-05-07T19:11:15.309Z,20.60
2018-05-07T19:13:42.373Z,20.60
2018-05-07T19:16:09.388Z,20.60
2018-05-07T19:18:37.160Z,20.50
2018-05-07T19:21:04.236Z,20.50
2018-05-07T19:23:31.423Z,20.40
2018-05-07T19:25:59.205Z,20.20
2018-05-07T19:28:26.854Z,20.20
2018-05-07T19:30:53.905Z,20.20
2018-05-07T19:33:21.888Z,20.20
2018-05-07T19:35:49.685Z,20.10
2018-05-07T19:38:18.412Z,20.00
2018-05-07T19:40:45.431Z,20.00
2018-05-07T19:43:12.542Z,20.00
2018-05-07T19:45:39.548Z,20.00
2018-05-07T19:48:06.613Z,19.90
2018-05-07T19:50:33.604Z,19.80
2018-05-07T19:53:00.744Z,19.80
2018-05-07T19:55:27.761Z,19.80
2018-05-07T19:57:54.802Z,19.70
2018-05-07T20:00:21.908Z,19.60
2018-05-07T20:02:49.436Z,19.50
2018-05-07T20:05:16.551Z,19.50
2018-05-07T20:07:43.562Z,19.50
2018-05-07T20:10:10.584Z,19.40
2018-05-07T20:12:38.421Z,19.40
2018-05-07T20:15:05.382Z,19.30
2018-05-07T20:17:32.689Z,19.30
2018-05-07T20:20:00.569Z,19.20
2018-05-07T20:22:27.527Z,19.20
2018-05-07T20:24:54.738Z,19.20
2018-05-07T20:27:21.730Z,19.20
2018-05-07T20:29:48.763Z,19.10
2018-05-07T20:32:15.860Z,19.20
2018-05-07T20:34:42.912Z,19.10
2018-05-07T20:37:09.945Z,19.10
2018-05-07T20:39:37.736Z,19.10
2018-05-07T20:42:04.821Z,19.00
2018-05-07T20:44:31.840Z,19.00
2018-05-07T20:46:58.892Z,18.90
2018-05-07T20:49:25.944Z,18.90
2018-05-07T20:51:52.952Z,18.90
2018-05-07T20:54:20.056Z,18.90
2018-05-07T20:56:47.071Z,18.90
2018-05-07T20:59:14.858Z,18.80
2018-05-07T21:01:42.633Z,18.80
2018-05-07T21:04:09.660Z,18.80
2018-05-07T21:06:36.701Z,18.80
2018-05-07T21:09:03.788Z,18.70
2018-05-07T21:11:30.819Z,18.70
2018-05-07T21:13:57.844Z,18.70
2018-05-07T21:16:24.869Z,18.70
2018-05-07T21:18:52.619Z,18.70
2018-05-07T21:21:19.684Z,18.70
2018-05-07T21:23:46.637Z,18.60
2018-05-07T21:26:13.907Z,18.70
2018-05-07T21:28:40.913Z,18.60
2018-05-07T21:31:08.659Z,18.50
2018-05-07T21:33:35.801Z,18.50
2018-05-07T21:36:02.798Z,18.50
2018-05-07T21:38:29.888Z,18.40
2018-05-07T21:40:56.896Z,18.30
2018-05-07T21:43:23.959Z,18.30
2018-05-07T21:45:50.967Z,18.20
2018-05-07T21:48:17.949Z,18.10
2018-05-07T21:50:44.969Z,18.00
2018-05-07T21:53:12.044Z,18.00
2018-05-07T21:55:39.033Z,17.90
2018-05-07T21:58:06.048Z,17.80
2018-05-07T22:00:33.061Z,17.80
2018-05-07T22:03:01.008Z,17.70
2018-05-07T22:05:28.280Z,17.70
2018-05-07T22:07:56.053Z,17.60
2018-05-07T22:10:23.792Z,17.40
2018-05-07T22:12:50.883Z,17.40
2018-05-07T22:15:17.945Z,17.30
2018-05-07T22:17:44.951Z,17.20
2018-05-07T22:20:11.949Z,17.20
2018-05-07T22:22:38.975Z,17.20
2018-05-07T22:25:06.011Z,17.10
2018-05-07T22:27:33.040Z,17.10
2018-05-07T22:30:00.768Z,17.00
2018-05-07T22:32:27.801Z,16.90
2018-05-07T22:34:54.919Z,16.90
2018-05-07T22:37:21.923Z,16.90
2018-05-07T22:39:49.787Z,16.80
2018-05-07T22:42:16.772Z,16.80
2018-05-07T22:44:43.827Z,16.80
2018-05-07T22:47:10.858Z,16.80
2018-05-07T22:49:37.848Z,16.80
2018-05-07T22:52:04.866Z,16.70
2018-05-07T22:54:31.896Z,16.70
2018-05-07T22:56:58.909Z,16.60
2018-05-07T22:59:25.923Z,16.50
2018-05-07T23:01:54.168Z,16.40
2018-05-07T23:04:21.557Z,16.40
2018-05-07T23:06:48.554Z,16.50
2018-05-07T23:09:15.572Z,16.40
2018-05-07T23:11:42.601Z,16.30
2018-05-07T23:14:09.639Z,16.30
2018-05-07T23:16:36.672Z,16.20
2018-05-07T23:19:03.677Z,16.10
2018-05-07T23:21:31.441Z,15.90
2018-05-07T23:23:58.549Z,16.00
2018-05-07T23:26:26.344Z,15.90
2018-05-07T23:28:53.345Z,15.80
2018-05-07T23:31:20.349Z,15.80
2018-05-07T23:33:47.424Z,15.70
2018-05-07T23:36:14.445Z,15.70
2018-05-07T23:38:42.178Z,15.70
2018-05-07T23:41:09.997Z,15.70
2018-05-07T23:43:37.044Z,15.60
2018-05-07T23:46:04.084Z,15.60
2018-05-07T23:48:31.143Z,15.60
2018-05-07T23:50:58.128Z,15.60
2018-05-07T23:53:25.195Z,15.60
2018-05-07T23:55:52.956Z,15.50
2018-05-07T23:58:19.968Z,15.50
